HEBA/HBE METAR and TAF weather

Enter ICAO airport designator
Station Type Date Time Source
HEBA METAR 2021/03/02 17:00 UTC NOAA

HEBA 021700Z 30010KT 9999 SCT020 15/07 Q1021 NOSIG


Station Type Date Time Source
HEBA Decoded METAR 2021/03/02 17:00 UTC NOAA

Alexandria Borg El Arab, Egypt (HEBA) 31-31N 030-10E
Mar 02, 2021 - 12:00 PM EST / 2021.03.02 1700 UTC
Wind: from the WNW (300 degrees) at 12 MPH (10 KT):0
Visibility: greater than 7 mile(s):0
Sky conditions: partly cloudy
Temperature: 59 F (15 C)
Dew Point: 44 F (7 C)
Relative Humidity: 58%
Pressure (altimeter): 30.15 in. Hg (1021 hPa)
ob: HEBA 021700Z 30010KT 9999 SCT020 15/07 Q1021 NOSIG
cycle: 17

Station Type Date Time Source
HEBA TAF 2021/03/02 18:06 UTC NOAA

TAF HEBA 021700Z 0218/0324 31010G20KT 9999 SCT020 SCT022
TEMPO 0300/0320 6000 SHRA BKN020

Example: see airport list